Time;durP1;ratioP1;P1;durP2;ratioP2;P2;SDS_P1;SDS_P2;PMS_P1;PMS_P2;Temp;Humidity;BMP_temperature;BMP_pressure;BME280_temperature;BME280_humidity;BME280_pressure;Samples;Min_cycle;Max_cycle;Signal;HPM_P1;HPM_P2
2023/12/01 00:01:26;;;;;;;15.75;10.35;;;;;;;;;;4941793;28;20054;-70
2023/12/01 00:03:52;;;;;;;18.90;10.95;;;;;;;;;;4942773;28;20175;-69
2023/12/01 00:06:17;;;;;;;17.83;12.18;;;;;;;;;;4942057;28;20058;-69
2023/12/01 00:08:42;;;;;;;19.17;11.95;;;;;;;;;;4935534;28;20058;-70
2023/12/01 00:11:08;;;;;;;15.70;10.77;;;;;;;;;;4937819;28;20058;-70
2023/12/01 00:13:33;;;;;;;17.45;12.00;;;;;;;;;;4939959;28;20043;-70
2023/12/01 00:15:59;;;;;;;16.80;10.65;;;;;;;;;;4942556;28;20484;-70
2023/12/01 00:18:24;;;;;;;17.13;10.35;;;;;;;;;;4956802;28;20087;-70
2023/12/01 00:20:50;;;;;;;14.50;10.23;;;;;;;;;;4942114;28;20109;-70
2023/12/01 00:23:16;;;;;;;15.70;11.02;;;;;;;;;;4941233;28;20047;-70
2023/12/01 00:25:41;;;;;;;15.63;11.32;;;;;;;;;;4939676;28;20493;-70
2023/12/01 00:28:07;;;;;;;17.30;11.32;;;;;;;;;;4942584;28;20051;-70
2023/12/01 00:30:32;;;;;;;20.80;10.18;;;;;;;;;;4940199;28;20050;-71
2023/12/01 00:32:58;;;;;;;15.05;10.77;;;;;;;;;;4942436;28;20917;-70
2023/12/01 00:35:23;;;;;;;14.93;10.68;;;;;;;;;;4956014;28;20106;-70
2023/12/01 00:37:48;;;;;;;17.42;11.65;;;;;;;;;;4940056;28;20396;-70
2023/12/01 00:40:14;;;;;;;16.83;10.45;;;;;;;;;;4940417;28;20055;-70
2023/12/01 00:42:39;;;;;;;17.75;11.13;;;;;;;;;;4933879;28;20047;-70
2023/12/01 00:45:05;;;;;;;15.43;10.65;;;;;;;;;;4940543;28;20078;-68
2023/12/01 00:47:31;;;;;;;16.70;10.88;;;;;;;;;;4939784;28;20150;-69
2023/12/01 00:49:56;;;;;;;25.75;15.82;;;;;;;;;;4940432;28;20952;-69
2023/12/01 00:52:22;;;;;;;20.77;12.73;;;;;;;;;;4942497;28;20059;-68
2023/12/01 00:54:47;;;;;;;26.65;14.48;;;;;;;;;;4941335;28;20050;-69
2023/12/01 00:57:13;;;;;;;21.08;12.23;;;;;;;;;;4940633;28;20509;-69
2023/12/01 00:59:38;;;;;;;20.08;12.40;;;;;;;;;;4939379;28;20048;-69
2023/12/01 01:02:03;;;;;;;21.77;12.60;;;;;;;;;;4939861;28;20477;-69
2023/12/01 01:04:29;;;;;;;22.60;13.68;;;;;;;;;;4943519;28;20153;-69
2023/12/01 01:06:54;;;;;;;21.05;11.25;;;;;;;;;;4941056;28;20502;-69
2023/12/01 01:09:20;;;;;;;19.60;11.88;;;;;;;;;;4941554;28;20465;-69
2023/12/01 01:11:45;;;;;;;20.83;11.35;;;;;;;;;;4939641;28;20926;-69
2023/12/01 01:14:10;;;;;;;22.15;12.05;;;;;;;;;;4939868;28;20043;-69
2023/12/01 01:16:36;;;;;;;17.02;10.82;;;;;;;;;;4955594;28;20528;-70
2023/12/01 01:19:01;;;;;;;18.60;12.07;;;;;;;;;;4943017;28;20043;-70
2023/12/01 01:21:27;;;;;;;17.05;11.32;;;;;;;;;;4939524;28;21201;-70
2023/12/01 01:23:52;;;;;;;21.13;12.27;;;;;;;;;;4940104;28;20845;-70
2023/12/01 01:26:17;;;;;;;17.10;12.18;;;;;;;;;;4941497;28;20054;-70
2023/12/01 01:28:43;;;;;;;17.27;10.55;;;;;;;;;;4940885;28;20982;-69
2023/12/01 01:31:08;;;;;;;19.90;12.40;;;;;;;;;;4940879;28;20516;-67
2023/12/01 01:33:36;;;;;;;16.50;11.00;;;;;;;;;;4924846;28;20043;-67
2023/12/01 01:36:01;;;;;;;15.95;11.63;;;;;;;;;;4939186;28;20078;-68
2023/12/01 01:38:27;;;;;;;18.73;11.00;;;;;;;;;;4943235;28;20074;-69
2023/12/01 01:40:52;;;;;;;16.85;11.40;;;;;;;;;;4939270;28;20046;-69
2023/12/01 01:43:22;;;;;;;17.40;11.55;;;;;;;;;;4945125;28;20047;-68
2023/12/01 01:46:14;;;;;;;16.13;10.50;;;;;;;;;;4940100;28;20063;-69
2023/12/01 01:48:42;;;;;;;15.10;9.93;;;;;;;;;;4929569;29;20566;-70
2023/12/01 01:51:09;;;;;;;16.20;9.25;;;;;;;;;;4940796;28;20504;-68
2023/12/01 01:53:37;;;;;;;18.83;9.90;;;;;;;;;;4941491;28;20043;-68
2023/12/01 01:56:03;;;;;;;16.30;10.32;;;;;;;;;;4946472;28;20540;-68
2023/12/01 01:58:28;;;;;;;14.48;10.05;;;;;;;;;;4939085;28;20058;-68
2023/12/01 02:00:53;;;;;;;13.85;9.75;;;;;;;;;;4942854;28;20130;-68
2023/12/01 02:03:21;;;;;;;18.60;10.52;;;;;;;;;;4940798;28;20058;-69
2023/12/01 02:05:47;;;;;;;16.05;10.15;;;;;;;;;;4939679;28;20043;-69
2023/12/01 02:08:27;;;;;;;18.83;11.55;;;;;;;;;;4944947;28;20050;-68
2023/12/01 02:10:54;;;;;;;19.73;11.45;;;;;;;;;;4922817;29;20291;-68
2023/12/01 02:13:20;;;;;;;18.08;10.65;;;;;;;;;;4939691;28;20055;-68
2023/12/01 02:15:47;;;;;;;16.58;10.38;;;;;;;;;;4939440;28;20066;-68
2023/12/01 02:18:25;;;;;;;20.05;11.60;;;;;;;;;;4945642;28;20055;-67
2023/12/01 02:20:52;;;;;;;18.02;12.18;;;;;;;;;;4938158;28;20051;-68
2023/12/01 02:23:18;;;;;;;17.23;10.85;;;;;;;;;;4944689;28;20613;-69
2023/12/01 02:25:44;;;;;;;16.52;10.30;;;;;;;;;;4953850;28;20065;-70
2023/12/01 02:28:10;;;;;;;20.15;11.13;;;;;;;;;;4943774;28;20043;-69
2023/12/01 02:30:36;;;;;;;18.63;11.70;;;;;;;;;;4941720;28;20535;-69
2023/12/01 02:33:02;;;;;;;17.63;12.07;;;;;;;;;;4927943;28;20144;-69
2023/12/01 02:35:29;;;;;;;15.75;9.98;;;;;;;;;;4951706;28;20070;-69
2023/12/01 02:37:59;;;;;;;21.33;11.98;;;;;;;;;;4939327;28;20058;-69
2023/12/01 02:40:25;;;;;;;19.27;11.98;;;;;;;;;;4954695;28;20054;-69
2023/12/01 02:42:52;;;;;;;19.20;12.60;;;;;;;;;;4938428;28;20047;-69
2023/12/01 02:45:18;;;;;;;19.15;12.05;;;;;;;;;;4938503;28;20047;-69
2023/12/01 02:47:53;;;;;;;16.83;11.15;;;;;;;;;;4944818;28;20075;-69
2023/12/01 02:50:19;;;;;;;17.55;10.27;;;;;;;;;;4942763;28;20062;-69
2023/12/01 02:52:45;;;;;;;18.52;10.38;;;;;;;;;;4941717;28;20628;-69
2023/12/01 02:55:11;;;;;;;16.42;10.98;;;;;;;;;;4944029;28;20050;-69
2023/12/01 02:57:41;;;;;;;18.20;11.43;;;;;;;;;;4945628;28;20130;-69
2023/12/01 03:00:13;;;;;;;16.20;10.77;;;;;;;;;;4943788;28;20046;-69
2023/12/01 03:02:43;;;;;;;17.45;11.52;;;;;;;;;;4942301;28;20043;-69
2023/12/01 03:05:10;;;;;;;15.77;10.23;;;;;;;;;;4943320;28;20046;-69
2023/12/01 03:07:36;;;;;;;16.95;10.60;;;;;;;;;;4941881;28;20555;-69
2023/12/01 03:10:02;;;;;;;13.10;9.45;;;;;;;;;;4943266;28;20051;-68
2023/12/01 03:12:28;;;;;;;17.52;11.23;;;;;;;;;;4941835;28;20050;-68
2023/12/01 03:14:54;;;;;;;20.92;11.80;;;;;;;;;;4940282;28;20067;-68
2023/12/01 03:17:23;;;;;;;15.40;10.15;;;;;;;;;;4925972;29;20055;-68
2023/12/01 03:19:49;;;;;;;14.40;9.77;;;;;;;;;;4941214;28;20047;-68
2023/12/01 03:22:15;;;;;;;23.50;10.70;;;;;;;;;;4943442;28;20381;-69
2023/12/01 03:24:42;;;;;;;17.95;11.68;;;;;;;;;;4943254;28;20055;-69
2023/12/01 03:27:07;;;;;;;21.52;13.10;;;;;;;;;;4943032;28;20508;-69
2023/12/01 03:29:34;;;;;;;18.55;11.73;;;;;;;;;;4942963;28;20055;-69
2023/12/01 03:32:00;;;;;;;18.58;11.38;;;;;;;;;;4941541;28;20090;-69
2023/12/01 03:34:26;;;;;;;21.33;12.45;;;;;;;;;;4942690;28;20043;-68
2023/12/01 03:36:52;;;;;;;14.30;10.50;;;;;;;;;;4943001;28;20424;-69
2023/12/01 03:39:17;;;;;;;17.45;12.02;;;;;;;;;;4948720;28;20051;-69
2023/12/01 03:41:47;;;;;;;22.13;13.75;;;;;;;;;;4940951;28;20099;-69
2023/12/01 03:44:13;;;;;;;18.90;11.90;;;;;;;;;;4957504;28;20047;-70
2023/12/01 03:46:39;;;;;;;21.88;12.68;;;;;;;;;;4941944;28;20054;-70
2023/12/01 03:49:04;;;;;;;19.13;11.27;;;;;;;;;;4941248;28;20047;-70
2023/12/01 03:51:30;;;;;;;17.90;11.55;;;;;;;;;;4946581;28;21065;-70
2023/12/01 03:53:55;;;;;;;20.00;12.05;;;;;;;;;;4941832;28;20457;-71
2023/12/01 03:56:21;;;;;;;19.25;11.55;;;;;;;;;;4958432;28;20470;-69
2023/12/01 03:58:46;;;;;;;19.83;12.52;;;;;;;;;;4957351;28;20043;-69
2023/12/01 04:01:12;;;;;;;17.75;10.90;;;;;;;;;;4941473;28;20043;-69
2023/12/01 04:03:37;;;;;;;15.15;9.82;;;;;;;;;;4943056;28;20043;-69
2023/12/01 04:06:03;;;;;;;19.27;11.57;;;;;;;;;;4942630;28;20047;-69
2023/12/01 04:08:28;;;;;;;20.23;12.57;;;;;;;;;;4943051;28;20167;-68
2023/12/01 04:10:55;;;;;;;18.52;12.90;;;;;;;;;;4940131;28;20043;-68
2023/12/01 04:13:21;;;;;;;15.68;10.82;;;;;;;;;;4947985;28;20129;-69
2023/12/01 04:15:47;;;;;;;21.77;13.00;;;;;;;;;;4943139;28;20090;-69
2023/12/01 04:18:13;;;;;;;17.13;11.88;;;;;;;;;;4941305;28;20050;-69
2023/12/01 04:20:39;;;;;;;17.30;10.60;;;;;;;;;;4956720;28;20066;-69
2023/12/01 04:23:12;;;;;;;20.35;12.18;;;;;;;;;;4940803;28;20047;-69
2023/12/01 04:25:46;;;;;;;19.17;12.50;;;;;;;;;;4940265;28;20481;-69
2023/12/01 04:28:13;;;;;;;16.88;11.52;;;;;;;;;;4941415;28;20061;-69
2023/12/01 04:30:39;;;;;;;18.48;12.30;;;;;;;;;;4941997;28;20063;-69
2023/12/01 04:33:05;;;;;;;18.45;11.93;;;;;;;;;;4944212;28;20126;-69
2023/12/01 04:35:32;;;;;;;16.23;12.32;;;;;;;;;;4939084;28;20444;-69
2023/12/01 04:37:59;;;;;;;18.17;11.65;;;;;;;;;;4941591;28;20543;-69
2023/12/01 04:40:27;;;;;;;26.58;11.77;;;;;;;;;;4941944;28;20102;-69
2023/12/01 04:42:54;;;;;;;20.60;11.57;;;;;;;;;;4941786;28;20943;-69
2023/12/01 04:45:25;;;;;;;22.02;12.68;;;;;;;;;;4941877;28;20054;-68
2023/12/01 04:47:52;;;;;;;21.38;13.13;;;;;;;;;;4941082;28;20626;-69
2023/12/01 04:50:28;;;;;;;24.15;14.15;;;;;;;;;;4937848;28;20058;-69
2023/12/01 04:52:55;;;;;;;24.27;13.90;;;;;;;;;;4941379;28;20039;-69
2023/12/01 04:55:24;;;;;;;24.25;13.68;;;;;;;;;;4941885;28;20043;-69
2023/12/01 04:57:49;;;;;;;20.67;12.85;;;;;;;;;;4941419;28;20130;-69
2023/12/01 05:00:23;;;;;;;32.45;16.95;;;;;;;;;;4941751;28;20114;-69
2023/12/01 05:02:53;;;;;;;71.95;33.00;;;;;;;;;;4941954;28;20039;-69
2023/12/01 05:05:20;;;;;;;40.70;18.58;;;;;;;;;;4940752;28;20066;-69
2023/12/01 05:07:49;;;;;;;32.25;17.85;;;;;;;;;;4940939;28;20055;-69
2023/12/01 05:10:22;;;;;;;31.88;16.25;;;;;;;;;;4942724;28;20039;-68
2023/12/01 05:12:50;;;;;;;17.30;11.27;;;;;;;;;;4942440;28;20047;-69
2023/12/01 05:15:21;;;;;;;20.70;12.68;;;;;;;;;;4942023;28;20130;-69
2023/12/01 05:17:49;;;;;;;20.23;12.95;;;;;;;;;;4956071;28;20114;-69
2023/12/01 05:20:19;;;;;;;23.60;13.60;;;;;;;;;;4940239;28;20051;-70
2023/12/01 05:22:49;;;;;;;19.23;11.77;;;;;;;;;;4942074;28;20074;-70
2023/12/01 05:25:16;;;;;;;20.50;11.77;;;;;;;;;;4941281;28;20039;-69
2023/12/01 05:27:46;;;;;;;18.30;12.68;;;;;;;;;;4935556;28;21062;-69
2023/12/01 05:30:15;;;;;;;18.42;11.90;;;;;;;;;;4954857;28;20042;-70
2023/12/01 05:32:42;;;;;;;20.17;12.98;;;;;;;;;;4941654;28;20544;-69
2023/12/01 05:35:11;;;;;;;19.55;13.15;;;;;;;;;;4940900;28;20154;-68
2023/12/01 05:37:50;;;;;;;22.25;13.73;;;;;;;;;;4941247;28;20048;-68
2023/12/01 05:40:22;;;;;;;21.80;12.98;;;;;;;;;;4942963;28;20098;-68
2023/12/01 05:42:48;;;;;;;;;;;;;;;;;;4945874;28;20070;-68
2023/12/01 05:45:15;;;;;;;17.73;10.98;;;;;;;;;;4947326;28;20054;-68
2023/12/01 05:47:42;;;;;;;22.60;12.05;;;;;;;;;;4945130;28;20124;-69
2023/12/01 05:50:20;;;;;;;18.00;11.73;;;;;;;;;;4947646;28;20051;-69
2023/12/01 05:52:46;;;;;;;22.58;11.20;;;;;;;;;;4943303;28;20105;-69
2023/12/01 05:55:16;;;;;;;22.63;13.68;;;;;;;;;;4944035;28;20496;-71
2023/12/01 05:57:42;;;;;;;20.05;11.65;;;;;;;;;;4942494;28;20054;-68
2023/12/01 06:00:12;;;;;;;20.25;12.15;;;;;;;;;;4942626;28;20047;-71
2023/12/01 06:02:40;;;;;;;18.50;12.00;;;;;;;;;;4934656;28;20624;-73
2023/12/01 06:05:06;;;;;;;18.45;12.68;;;;;;;;;;4945403;28;20516;-70
2023/12/01 06:07:32;;;;;;;15.48;10.57;;;;;;;;;;4957344;28;20130;-72
2023/12/01 06:09:58;;;;;;;18.63;11.43;;;;;;;;;;4939254;28;20194;-70
2023/12/01 06:12:24;;;;;;;19.88;11.85;;;;;;;;;;4940594;28;20693;-69
2023/12/01 06:14:49;;;;;;;20.52;13.13;;;;;;;;;;4939683;28;20047;-69
2023/12/01 06:17:14;;;;;;;31.55;16.17;;;;;;;;;;4942227;28;20048;-69
2023/12/01 06:19:40;;;;;;;27.45;15.30;;;;;;;;;;4937667;28;20850;-69
2023/12/01 06:22:05;;;;;;;19.35;11.32;;;;;;;;;;4938716;28;20055;-72
2023/12/01 06:24:33;;;;;;;18.85;12.20;;;;;;;;;;4942926;28;20412;-69
2023/12/01 06:27:00;;;;;;;19.00;11.38;;;;;;;;;;4942042;28;20591;-69
2023/12/01 06:29:25;;;;;;;20.02;12.68;;;;;;;;;;4941994;28;20043;-70
2023/12/01 06:31:51;;;;;;;14.27;10.30;;;;;;;;;;4942073;28;20094;-69
2023/12/01 06:34:16;;;;;;;18.27;11.68;;;;;;;;;;4940244;28;20515;-72
2023/12/01 06:36:42;;;;;;;22.48;11.13;;;;;;;;;;4933197;28;20058;-69
2023/12/01 06:39:10;;;;;;;19.80;12.23;;;;;;;;;;4940195;28;20047;-70
2023/12/01 06:41:37;;;;;;;18.10;11.65;;;;;;;;;;4938091;28;20043;-73
2023/12/01 06:44:05;;;;;;;20.80;11.90;;;;;;;;;;4938085;28;20054;-71
2023/12/01 06:46:31;;;;;;;18.15;12.23;;;;;;;;;;4940198;28;20054;-71
2023/12/01 06:48:56;;;;;;;17.95;11.52;;;;;;;;;;4938182;28;20047;-69
2023/12/01 06:51:22;;;;;;;21.95;12.90;;;;;;;;;;4937286;28;20045;-70
2023/12/01 06:53:47;;;;;;;18.00;11.38;;;;;;;;;;4937602;28;20517;-69
2023/12/01 06:56:13;;;;;;;17.45;11.88;;;;;;;;;;4938458;28;20051;-69
2023/12/01 06:58:39;;;;;;;18.38;11.38;;;;;;;;;;4939960;28;20504;-70
2023/12/01 07:01:05;;;;;;;16.30;11.05;;;;;;;;;;4939476;28;20075;-69
2023/12/01 07:03:30;;;;;;;18.80;12.55;;;;;;;;;;4943716;28;20109;-71
2023/12/01 07:05:56;;;;;;;21.27;12.55;;;;;;;;;;4939292;28;20055;-70
2023/12/01 07:08:21;;;;;;;19.73;11.90;;;;;;;;;;4938807;28;20075;-70
2023/12/01 07:10:46;;;;;;;19.40;11.30;;;;;;;;;;4939919;28;20055;-71
2023/12/01 07:13:12;;;;;;;18.88;12.30;;;;;;;;;;4938510;28;20066;-68
2023/12/01 07:15:38;;;;;;;20.35;12.45;;;;;;;;;;4938845;28;20071;-70
2023/12/01 07:18:06;;;;;;;19.63;12.07;;;;;;;;;;4938978;28;20548;-71
2023/12/01 07:20:33;;;;;;;15.10;10.40;;;;;;;;;;4938893;28;20046;-69
2023/12/01 07:22:59;;;;;;;21.27;11.88;;;;;;;;;;4939566;28;20066;-69
2023/12/01 07:25:25;;;;;;;17.58;10.48;;;;;;;;;;4938146;28;20040;-69
2023/12/01 07:28:02;;;;;;;20.17;11.27;;;;;;;;;;4942133;28;20043;-69
2023/12/01 07:30:28;;;;;;;15.55;10.27;;;;;;;;;;4938893;28;20493;-71
2023/12/01 07:32:55;;;;;;;14.60;10.40;;;;;;;;;;4944290;28;20058;-69
2023/12/01 07:35:21;;;;;;;17.55;11.35;;;;;;;;;;4939618;28;20042;-72
2023/12/01 07:37:48;;;;;;;14.25;9.50;;;;;;;;;;4942169;28;20061;-70
2023/12/01 07:40:22;;;;;;;14.70;10.50;;;;;;;;;;4937081;28;20416;-71
2023/12/01 07:42:48;;;;;;;19.25;9.95;;;;;;;;;;4941109;28;20147;-69
2023/12/01 07:45:17;;;;;;;37.42;10.85;;;;;;;;;;4940283;28;20134;-70
2023/12/01 07:47:46;;;;;;;26.85;11.52;;;;;;;;;;4938251;28;20117;-75
2023/12/01 07:50:14;;;;;;;68.97;11.95;;;;;;;;;;4938897;28;20043;-69
2023/12/01 07:52:41;;;;;;;24.38;11.63;;;;;;;;;;4940601;28;20035;-69
2023/12/01 07:55:07;;;;;;;18.45;11.35;;;;;;;;;;4939588;28;20106;-72
2023/12/01 07:57:32;;;;;;;16.77;10.70;;;;;;;;;;4936155;28;20085;-68
2023/12/01 07:59:58;;;;;;;18.17;11.43;;;;;;;;;;4940873;28;20047;-70
2023/12/01 08:02:23;;;;;;;17.95;11.27;;;;;;;;;;4946378;28;20806;-69
2023/12/01 08:04:48;;;;;;;23.17;13.20;;;;;;;;;;4941300;28;20554;-71
2023/12/01 08:07:14;;;;;;;21.55;11.85;;;;;;;;;;4941474;28;20081;-68
2023/12/01 08:09:39;;;;;;;21.83;13.20;;;;;;;;;;4941145;28;20043;-70
2023/12/01 08:12:05;;;;;;;22.35;12.80;;;;;;;;;;4940594;28;20051;-69
2023/12/01 08:14:30;;;;;;;19.08;12.38;;;;;;;;;;4941893;28;20051;-68
2023/12/01 08:16:55;;;;;;;15.27;10.18;;;;;;;;;;4941215;28;20062;-71
2023/12/01 08:19:21;;;;;;;19.42;11.68;;;;;;;;;;4941095;28;20084;-72
2023/12/01 08:21:47;;;;;;;19.55;11.38;;;;;;;;;;4940812;28;20047;-70
2023/12/01 08:24:12;;;;;;;19.00;11.95;;;;;;;;;;4938537;28;20118;-68
2023/12/01 08:26:38;;;;;;;16.30;10.98;;;;;;;;;;4939904;28;20531;-69
2023/12/01 08:29:05;;;;;;;16.17;10.38;;;;;;;;;;4941854;28;20415;-71
2023/12/01 08:31:30;;;;;;;17.08;10.38;;;;;;;;;;4942087;28;20134;-70
2023/12/01 08:33:57;;;;;;;15.57;11.00;;;;;;;;;;4941135;28;20134;-68
2023/12/01 08:36:22;;;;;;;13.10;9.95;;;;;;;;;;4939849;28;20043;-70
2023/12/01 08:38:47;;;;;;;14.52;10.05;;;;;;;;;;4941232;28;20622;-68
2023/12/01 08:41:13;;;;;;;17.08;10.85;;;;;;;;;;4942227;28;20142;-68
2023/12/01 08:43:38;;;;;;;19.30;10.88;;;;;;;;;;4936651;28;20047;-68
2023/12/01 08:46:04;;;;;;;13.50;9.80;;;;;;;;;;4938823;28;20051;-69
2023/12/01 08:48:30;;;;;;;25.05;10.70;;;;;;;;;;4938656;28;20043;-71
2023/12/01 08:50:55;;;;;;;46.47;11.63;;;;;;;;;;4925413;29;20636;-70
2023/12/01 08:53:22;;;;;;;14.38;10.07;;;;;;;;;;4940604;28;20643;-69
2023/12/01 08:55:48;;;;;;;51.38;13.52;;;;;;;;;;4940355;28;20129;-69
2023/12/01 08:58:13;;;;;;;20.83;11.77;;;;;;;;;;4940845;28;20054;-69
2023/12/01 09:00:40;;;;;;;18.20;11.32;;;;;;;;;;4941114;28;20043;-73
2023/12/01 09:03:06;;;;;;;20.58;12.30;;;;;;;;;;4941725;28;20043;-68
2023/12/01 09:05:32;;;;;;;17.27;12.00;;;;;;;;;;4940263;28;20079;-71
2023/12/01 09:07:59;;;;;;;19.35;13.07;;;;;;;;;;4941021;28;20528;-70
2023/12/01 09:10:25;;;;;;;23.00;12.32;;;;;;;;;;4940224;28;20054;-69
2023/12/01 09:12:51;;;;;;;44.05;13.45;;;;;;;;;;4941303;28;20643;-73
2023/12/01 09:15:17;;;;;;;35.00;13.63;;;;;;;;;;4939412;28;20043;-70
2023/12/01 09:17:42;;;;;;;35.53;14.82;;;;;;;;;;4937386;28;20105;-70
2023/12/01 09:20:09;;;;;;;24.75;14.65;;;;;;;;;;4941236;28;20045;-70
2023/12/01 09:22:37;;;;;;;59.35;17.20;;;;;;;;;;4942400;28;20043;-71
2023/12/01 09:25:03;;;;;;;24.73;15.15;;;;;;;;;;4942249;28;20039;-72
2023/12/01 09:27:29;;;;;;;25.67;15.20;;;;;;;;;;4941779;28;20051;-71
2023/12/01 09:29:54;;;;;;;25.77;15.40;;;;;;;;;;4942025;28;20062;-70
2023/12/01 09:32:20;;;;;;;27.30;17.33;;;;;;;;;;4937210;28;20055;-73
2023/12/01 09:34:45;;;;;;;27.77;16.90;;;;;;;;;;4942613;28;20054;-74
2023/12/01 09:37:12;;;;;;;25.45;15.65;;;;;;;;;;4937111;28;20138;-73
2023/12/01 09:39:38;;;;;;;22.52;14.45;;;;;;;;;;4937155;28;20057;-71
2023/12/01 09:42:08;;;;;;;24.67;15.38;;;;;;;;;;4937479;28;20414;-73
2023/12/01 09:44:35;;;;;;;25.50;15.38;;;;;;;;;;4935945;28;20078;-71
2023/12/01 09:47:06;;;;;;;23.02;14.00;;;;;;;;;;4938502;28;20075;-72
2023/12/01 09:49:33;;;;;;;23.63;13.65;;;;;;;;;;4936997;28;20165;-71
2023/12/01 09:52:00;;;;;;;20.75;13.35;;;;;;;;;;4940418;28;20170;-71
2023/12/01 09:54:26;;;;;;;22.00;14.77;;;;;;;;;;4941910;28;20051;-72
2023/12/01 09:56:52;;;;;;;27.15;14.73;;;;;;;;;;4941492;28;20106;-73
2023/12/01 09:59:19;;;;;;;22.20;13.32;;;;;;;;;;4937568;28;20057;-71
2023/12/01 10:01:47;;;;;;;18.17;11.45;;;;;;;;;;4937475;28;20074;-72
2023/12/01 10:04:12;;;;;;;23.33;15.75;;;;;;;;;;4939360;28;20053;-72
2023/12/01 10:06:39;;;;;;;26.30;12.10;;;;;;;;;;4937696;28;20047;-70
2023/12/01 10:09:10;;;;;;;20.20;12.93;;;;;;;;;;4939467;28;20047;-72
2023/12/01 10:11:36;;;;;;;18.80;12.90;;;;;;;;;;4938650;28;20188;-71
2023/12/01 10:14:09;;;;;;;38.67;13.30;;;;;;;;;;4931599;28;20059;-70
2023/12/01 10:16:36;;;;;;;20.48;12.82;;;;;;;;;;4927854;28;20075;-71
2023/12/01 10:19:06;;;;;;;22.27;13.40;;;;;;;;;;4932672;28;20039;-73
2023/12/01 10:21:45;;;;;;;22.50;12.32;;;;;;;;;;4936116;28;20051;-71
2023/12/01 10:24:21;;;;;;;17.83;11.63;;;;;;;;;;4939581;28;20058;-70
2023/12/01 10:26:49;;;;;;;17.13;11.35;;;;;;;;;;4935017;28;20055;-72
2023/12/01 10:29:31;;;;;;;22.95;13.80;;;;;;;;;;4937784;28;20047;-71
2023/12/01 10:32:04;;;;;;;20.23;12.27;;;;;;;;;;4937864;28;20126;-71
2023/12/01 10:34:30;;;;;;;16.98;11.82;;;;;;;;;;4941081;28;20047;-70
2023/12/01 10:36:56;;;;;;;20.02;12.52;;;;;;;;;;4938612;28;20046;-70
2023/12/01 10:39:30;;;;;;;17.13;11.73;;;;;;;;;;4938513;28;20588;-70
2023/12/01 10:41:59;;;;;;;15.70;11.27;;;;;;;;;;4936146;28;20757;-72
2023/12/01 10:44:26;;;;;;;15.00;10.77;;;;;;;;;;4937175;28;20489;-71
2023/12/01 10:46:53;;;;;;;15.77;10.75;;;;;;;;;;4921057;28;20547;-70
2023/12/01 10:49:20;;;;;;;16.92;11.23;;;;;;;;;;4938058;28;20058;-72
2023/12/01 10:51:52;;;;;;;16.08;10.52;;;;;;;;;;4939793;28;20158;-71
2023/12/01 10:54:23;;;;;;;16.05;11.10;;;;;;;;;;4938905;28;20047;-72
2023/12/01 10:57:04;;;;;;;17.33;11.50;;;;;;;;;;4938313;28;20237;-72
2023/12/01 10:59:33;;;;;;;15.10;10.73;;;;;;;;;;4938251;28;20062;-72
2023/12/01 11:02:00;;;;;;;15.10;10.52;;;;;;;;;;4940196;28;20051;-71
2023/12/01 11:04:26;;;;;;;15.85;10.95;;;;;;;;;;4939322;28;20202;-71
2023/12/01 11:07:28;;;;;;;15.63;11.52;;;;;;;;;;4938179;28;20130;-71
2023/12/01 11:10:14;;;;;;;21.20;11.40;;;;;;;;;;4940643;28;20093;-71
2023/12/01 11:12:54;;;;;;;18.08;11.90;;;;;;;;;;4942272;28;20066;-71
2023/12/01 11:15:24;;;;;;;16.58;11.07;;;;;;;;;;4941614;28;20074;-72
2023/12/01 11:17:50;;;;;;;14.10;10.50;;;;;;;;;;4954188;28;20065;-70
2023/12/01 11:20:43;;;;;;;17.90;11.15;;;;;;;;;;4941389;28;20058;-71
2023/12/01 11:23:08;;;;;;;;;;;;;;;;;;4933246;28;20476;-71
2023/12/01 11:25:43;;;;;;;12.25;8.52;;;;;;;;;;4940610;28;19976;-73
2023/12/01 11:28:56;;;;;;;13.02;9.25;;;;;;;;;;4940473;28;20047;-74
2023/12/01 11:33:49;;;;;;;14.10;9.55;;;;;;;;;;4940611;28;20054;-74
2023/12/01 11:36:34;;;;;;;15.73;9.68;;;;;;;;;;4942168;28;20055;-70
2023/12/01 11:41:41;;;;;;;12.35;8.80;;;;;;;;;;4949246;28;20051;-72
2023/12/01 11:44:17;;;;;;;21.20;14.18;;;;;;;;;;4942592;28;20416;-71
2023/12/01 11:46:44;;;;;;;16.02;10.95;;;;;;;;;;4955938;28;20091;-71
2023/12/01 11:49:10;;;;;;;16.25;10.27;;;;;;;;;;4941317;28;20871;-70
2023/12/01 11:51:35;;;;;;;13.65;10.32;;;;;;;;;;4938907;28;20158;-73
2023/12/01 11:54:02;;;;;;;15.20;10.00;;;;;;;;;;4942047;28;20149;-70
2023/12/01 11:56:29;;;;;;;10.57;7.95;;;;;;;;;;4955485;28;20062;-72
2023/12/01 11:58:55;;;;;;;10.38;8.00;;;;;;;;;;4941437;28;20113;-71
2023/12/01 12:01:22;;;;;;;11.20;8.52;;;;;;;;;;4949509;28;20047;-73
2023/12/01 12:03:58;;;;;;;14.23;8.88;;;;;;;;;;4939579;28;20085;-71
2023/12/01 12:06:24;;;;;;;12.00;8.93;;;;;;;;;;4940716;28;20047;-71
2023/12/01 12:08:51;;;;;;;13.20;9.05;;;;;;;;;;4940240;28;20098;-71
2023/12/01 12:11:18;;;;;;;13.43;9.90;;;;;;;;;;4940903;28;20047;-71
2023/12/01 12:13:44;;;;;;;14.15;10.13;;;;;;;;;;4938834;28;20113;-70
2023/12/01 12:16:13;;;;;;;15.80;10.05;;;;;;;;;;4956389;28;20051;-70
2023/12/01 12:18:38;;;;;;;13.93;9.80;;;;;;;;;;4939880;28;20047;-70
2023/12/01 12:21:05;;;;;;;16.40;9.50;;;;;;;;;;4939767;28;20050;-71
2023/12/01 12:23:31;;;;;;;14.45;10.32;;;;;;;;;;4938774;28;20210;-70
2023/12/01 12:26:20;;;;;;;16.08;10.85;;;;;;;;;;4939757;28;20465;-71
2023/12/01 12:28:49;;;;;;;14.05;10.02;;;;;;;;;;4934759;28;20093;-69
2023/12/01 12:31:15;;;;;;;13.57;9.95;;;;;;;;;;4923458;29;20047;-70
2023/12/01 12:33:41;;;;;;;14.35;9.50;;;;;;;;;;4938167;28;20103;-70
2023/12/01 12:36:07;;;;;;;15.15;9.70;;;;;;;;;;4941076;28;20509;-73
2023/12/01 12:38:33;;;;;;;14.68;10.55;;;;;;;;;;4941111;28;20047;-68
2023/12/01 12:41:04;;;;;;;12.90;9.35;;;;;;;;;;4941967;28;20047;-71
2023/12/01 12:43:32;;;;;;;17.50;10.68;;;;;;;;;;4939692;28;20683;-72
2023/12/01 12:46:03;;;;;;;13.30;9.73;;;;;;;;;;4941748;28;20043;-73
2023/12/01 12:48:31;;;;;;;16.17;10.18;;;;;;;;;;4940723;28;20161;-71
2023/12/01 12:50:57;;;;;;;12.30;9.15;;;;;;;;;;4941503;28;20516;-73
2023/12/01 12:53:22;;;;;;;10.25;7.82;;;;;;;;;;4940645;28;20048;-71
2023/12/01 12:55:48;;;;;;;11.15;7.85;;;;;;;;;;4954220;28;20063;-71
2023/12/01 12:58:13;;;;;;;13.95;8.07;;;;;;;;;;4940072;28;20129;-71
2023/12/01 13:00:40;;;;;;;9.77;7.43;;;;;;;;;;4941149;28;20090;-71
2023/12/01 13:03:05;;;;;;;13.90;7.88;;;;;;;;;;4942158;28;20043;-71
2023/12/01 13:05:31;;;;;;;10.95;7.18;;;;;;;;;;4939938;28;20043;-70
2023/12/01 13:07:56;;;;;;;9.77;7.10;;;;;;;;;;4956559;28;20513;-70
2023/12/01 13:10:22;;;;;;;9.45;6.50;;;;;;;;;;4940078;28;20046;-71
2023/12/01 13:12:47;;;;;;;7.35;5.22;;;;;;;;;;4940502;28;20051;-71
2023/12/01 13:15:12;;;;;;;9.48;6.90;;;;;;;;;;4940013;28;20051;-71
2023/12/01 13:17:38;;;;;;;9.65;7.25;;;;;;;;;;4941089;28;20138;-72
2023/12/01 13:20:05;;;;;;;10.13;6.88;;;;;;;;;;4943247;28;20058;-71
2023/12/01 13:22:30;;;;;;;8.43;6.45;;;;;;;;;;4939583;28;20075;-71
2023/12/01 13:24:56;;;;;;;11.32;7.20;;;;;;;;;;4940946;28;20158;-72
2023/12/01 13:27:21;;;;;;;11.88;8.15;;;;;;;;;;4941880;28;20055;-71
2023/12/01 13:29:46;;;;;;;11.32;8.20;;;;;;;;;;4939828;28;29141;-71
2023/12/01 13:32:12;;;;;;;17.60;10.48;;;;;;;;;;4940264;28;20102;-69
2023/12/01 13:34:37;;;;;;;22.50;12.88;;;;;;;;;;4940132;28;20065;-70
2023/12/01 13:37:03;;;;;;;23.95;12.80;;;;;;;;;;4940690;28;21229;-71
2023/12/01 13:39:28;;;;;;;14.32;9.80;;;;;;;;;;4937643;28;20086;-70
2023/12/01 13:41:54;;;;;;;14.30;8.93;;;;;;;;;;4939626;28;20058;-69
2023/12/01 13:44:25;;;;;;;8.65;6.85;;;;;;;;;;4939886;28;20046;-71
2023/12/01 13:46:51;;;;;;;10.20;7.05;;;;;;;;;;4928842;28;20071;-71
2023/12/01 13:49:17;;;;;;;12.18;7.63;;;;;;;;;;4919479;29;20047;-76
2023/12/01 13:51:52;;;;;;;11.13;6.90;;;;;;;;;;4913553;28;20051;-74
2023/12/01 13:54:20;;;;;;;10.05;5.97;;;;;;;;;;4944305;28;20497;-70
2023/12/01 13:56:46;;;;;;;6.75;5.03;;;;;;;;;;4919398;28;20051;-70
2023/12/01 13:59:14;;;;;;;8.50;4.95;;;;;;;;;;4921521;28;20047;-72
2023/12/01 14:01:39;;;;;;;6.32;4.30;;;;;;;;;;4919402;28;20485;-71
2023/12/01 14:04:04;;;;;;;4.40;3.88;;;;;;;;;;4913824;28;21228;-71
2023/12/01 14:06:30;;;;;;;8.00;4.80;;;;;;;;;;4917700;28;20087;-74
2023/12/01 14:08:55;;;;;;;10.82;5.88;;;;;;;;;;4919294;28;21025;-71
2023/12/01 14:11:21;;;;;;;7.53;4.68;;;;;;;;;;4918481;28;20126;-71
2023/12/01 14:13:46;;;;;;;7.45;4.75;;;;;;;;;;4916956;28;20847;-71
2023/12/01 14:16:11;;;;;;;5.65;3.78;;;;;;;;;;4917256;28;20498;-70
2023/12/01 14:18:37;;;;;;;6.75;4.53;;;;;;;;;;4917421;28;20044;-71
2023/12/01 14:21:03;;;;;;;6.80;4.68;;;;;;;;;;4919398;28;20405;-70
2023/12/01 14:23:29;;;;;;;9.20;6.20;;;;;;;;;;4918986;28;20055;-70
2023/12/01 14:25:54;;;;;;;9.23;5.05;;;;;;;;;;4918597;28;20048;-70
2023/12/01 14:28:20;;;;;;;10.60;6.30;;;;;;;;;;4917697;28;20618;-69